Samuels, Idaho
Current Conditions -  °F | °C
As of 1:35 AM on Saturday 20 Dec 2014 (Local Time) from KSZT Reporting Station
Overcast Overcast  
Wind Chill: 34°   Ceiling: 2900
Heat Index: 34°   Visibility: 7mi
Dew Point: 34°   Wind: 3mph
Humidity: 100%   Direction: 200°SSW
Pressure: 29.99"   Gusts: NA
Location:  48.48°N, 116.46°W
Report Text: KSZT 200935Z AUTO 20003KT 7SM SCT024 OVC029 01/01 A2999 RMK AO2
Loading
Personal Weather Stations






























Interactive Weather Map New forecast layout! Learn more

10-Day Weather Forecast

Advertisements
Track Severe Weather on mobile